Time;durP1;ratioP1;P1;durP2;ratioP2;P2;SDS_P1;SDS_P2;PMS_P1;PMS_P2;Temp;Humidity;BMP_temperature;BMP_pressure;BME280_temperature;BME280_humidity;BME280_pressure;Samples;Min_cycle;Max_cycle;Signal;HPM_P1;HPM_P2
2022/04/09 00:01:06;;;;;;;;;;;;;;;;;;5031792;28;19981;-67
2022/04/09 00:03:33;;;;;;;;;;;;;;;;;;5031230;28;19971;-67
2022/04/09 00:05:59;;;;;;;;;;;;;;;;;;5033418;28;19998;-67
2022/04/09 00:08:25;;;;;;;;;;;;;;;;;;4683249;28;10000546;-67
2022/04/09 00:10:51;;;;;;;;;;;;;;;;;;5034986;28;20052;-66
2022/04/09 00:13:19;;;;;;;;;;;;;;;;;;5030250;28;20463;-68
2022/04/09 00:15:45;;;;;;;;;;;;;;;;;;5032969;28;20113;-67
2022/04/09 00:18:11;;;;;;;;;;;;;;;;;;5041561;28;20130;-67
2022/04/09 00:20:38;;;;;;;;;;;;;;;;;;5034105;28;19972;-69
2022/04/09 00:23:04;;;;;;;;;;;;;;;;;;5033816;28;19963;-68
2022/04/09 00:25:30;;;;;;;;;;;;;;;;;;5033939;28;19992;-68
2022/04/09 00:27:56;;;;;;;;;;;;;;;;;;5034597;28;19971;-67
2022/04/09 00:30:22;;;;;;;;;;;;;;;;;;5034925;28;19974;-67
2022/04/09 00:32:49;;;;;;;;;;;;;;;;;;5034299;28;20029;-67
2022/04/09 00:35:15;;;;;;;;;;;;;;;;;;5034891;28;19991;-69
2022/04/09 00:37:42;;;;;;;;;;;;;;;;;;5034305;28;19962;-69
2022/04/09 00:40:08;;;;;;;;;;;;;;;;;;5031563;28;19951;-68
2022/04/09 00:42:34;;;;;;;;;;;;;;;;;;5035762;28;20435;-68
2022/04/09 00:45:00;;;;;;;;;;;;;;;;;;5036626;28;19988;-67
2022/04/09 00:47:26;;;;;;;;;;;;;;;;;;5028996;28;20054;-68
2022/04/09 00:49:53;;;;;;;;;;;;;;;;;;5036762;28;20345;-68
2022/04/09 00:52:19;;;;;;;;;;;;;;;;;;5034131;28;19971;-69
2022/04/09 00:54:45;;;;;;;;;;;;;;;;;;5035104;28;19982;-68
2022/04/09 00:57:11;;;;;;;;;;;;;;;;;;5034422;28;19976;-69
2022/04/09 00:59:37;;;;;;;;;;;;;;;;;;5035284;28;20471;-67
2022/04/09 01:02:03;;;;;;;;;;;;;;;;;;5035062;28;19967;-67
2022/04/09 01:04:29;;;;;;;;;;;;;;;;;;5033376;28;19985;-67
2022/04/09 01:06:59;;;;;;;;;;;;;;;;;;5034387;28;19972;-68
2022/04/09 01:09:25;;;;;;;;;;;;;;;;;;5032827;28;19978;-68
2022/04/09 01:11:51;;;;;;;;;;;;;;;;;;5033346;28;19965;-67
2022/04/09 01:14:17;;;;;;;;;;;;;;;;;;5033681;28;20497;-68
2022/04/09 01:16:44;;;;;;;;;;;;;;;;;;5037942;28;20397;-67
2022/04/09 01:19:10;;;;;;;;;;;;;;;;;;5034389;28;20010;-67
2022/04/09 01:21:36;;;;;;;;;;;;;;;;;;5033872;28;20044;-67
2022/04/09 01:24:04;;;;;;;;;;;;;;;;;;5035142;28;19971;-67
2022/04/09 01:26:30;;;;;;;;;;;;;;;;;;5033341;28;19973;-66
2022/04/09 01:28:56;;;;;;;;;;;;;;;;;;5044845;28;19969;-67
2022/04/09 01:31:22;;;;;;;;;;;;;;;;;;5050854;28;20051;-67
2022/04/09 01:33:48;;;;;;;;;;;;;;;;;;5050770;28;19961;-68
2022/04/09 01:36:15;;;;;;;;;;;;;;;;;;5051390;28;20436;-67
2022/04/09 01:38:41;;;;;;;;;;;;;;;;;;5049751;28;19953;-67
2022/04/09 01:41:07;;;;;;;;;;;;;;;;;;5045083;28;19968;-67
2022/04/09 01:43:34;;;;;;;;;;;;;;;;;;5041804;28;19973;-67
2022/04/09 01:46:00;;;;;;;;;;;;;;;;;;5048650;28;20007;-67
2022/04/09 01:48:26;;;;;;;;;;;;;;;;;;5050836;28;19972;-67
2022/04/09 01:50:52;;;;;;;;;;;;;;;;;;5042801;28;19972;-67
2022/04/09 01:53:19;;;;;;;;;;;;;;;;;;5036945;28;19955;-67
2022/04/09 01:55:45;;;;;;;;;;;;;;;;;;5032779;28;19959;-65
2022/04/09 02:00:39;;;;;;;;;;;;;;;;;;5045102;28;19997;-60
2022/04/09 02:03:05;;;;;;;;;;;;;;;;;;5046805;28;19947;-61
2022/04/09 02:05:34;;;;;;;;;;;;;;;;;;5047735;28;19966;-61
2022/04/09 02:08:00;;;;;;;;;;;;;;;;;;5048763;28;20071;-61
2022/04/09 02:10:27;;;;;;;;;;;;;;;;;;5048842;28;19940;-62
2022/04/09 02:12:53;;;;;;;;;;;;;;;;;;5044074;28;20020;-61
2022/04/09 02:15:20;;;;;;;;;;;;;;;;;;5047930;28;19981;-61
2022/04/09 02:17:46;;;;;;;;;;;;;;;;;;5051956;28;19944;-61
2022/04/09 02:20:12;;;;;;;;;;;;;;;;;;5047473;28;19938;-60
2022/04/09 02:22:38;;;;;;;;;;;;;;;;;;5046952;28;19960;-59
2022/04/09 02:25:04;;;;;;;;;;;;;;;;;;5048277;28;19960;-59
2022/04/09 02:27:30;;;;;;;;;;;;;;;;;;5045679;28;19951;-60
2022/04/09 02:29:57;;;;;;;;;;;;;;;;;;5047985;28;19955;-59
2022/04/09 02:32:23;;;;;;;;;;;;;;;;;;5047631;28;19924;-60
2022/04/09 02:34:52;;;;;;;;;;;;;;;;;;5047394;28;20049;-59
2022/04/09 02:37:18;;;;;;;;;;;;;;;;;;5048138;28;19942;-59
2022/04/09 02:39:44;;;;;;;;;;;;;;;;;;5047938;28;19937;-58
2022/04/09 02:42:12;;;;;;;;;;;;;;;;;;5046507;28;19951;-58
2022/04/09 02:44:38;;;;;;;;;;;;;;;;;;5047977;28;20014;-58
2022/04/09 02:47:04;;;;;;;;;;;;;;;;;;5047828;28;19957;-59
2022/04/09 02:49:30;;;;;;;;;;;;;;;;;;5048002;28;20408;-64
2022/04/09 02:51:57;;;;;;;;;;;;;;;;;;5046982;28;19936;-64
2022/04/09 02:54:23;;;;;;;;;;;;;;;;;;5047309;28;19967;-64
2022/04/09 02:56:49;;;;;;;;;;;;;;;;;;5046948;28;19964;-64
2022/04/09 02:59:15;;;;;;;;;;;;;;;;;;5047843;28;20023;-65
2022/04/09 03:01:43;;;;;;;;;;;;;;;;;;5048306;28;19938;-65
2022/04/09 03:04:09;;;;;;;;;;;;;;;;;;5048225;28;19978;-65
2022/04/09 03:06:35;;;;;;;;;;;;;;;;;;5048025;28;19940;-65
2022/04/09 03:09:01;;;;;;;;;;;;;;;;;;5047642;28;20380;-64
2022/04/09 03:11:28;;;;;;;;;;;;;;;;;;5046428;28;19960;-61
2022/04/09 03:13:54;;;;;;;;;;;;;;;;;;5047503;28;19964;-61
2022/04/09 03:16:20;;;;;;;;;;;;;;;;;;5053462;28;20373;-63
2022/04/09 03:18:46;;;;;;;;;;;;;;;;;;5052103;28;19924;-62
2022/04/09 03:21:12;;;;;;;;;;;;;;;;;;5049360;28;19947;-63
2022/04/09 03:23:38;;;;;;;;;;;;;;;;;;5052002;28;20396;-63
2022/04/09 03:26:05;;;;;;;;;;;;;;;;;;5051122;28;20021;-63
2022/04/09 03:28:31;;;;;;;;;;;;;;;;;;5050995;28;20370;-63
2022/04/09 03:30:57;;;;;;;;;;;;;;;;;;5051367;28;19925;-63
2022/04/09 03:33:23;;;;;;;;;;;;;;;;;;5050968;28;19925;-63
2022/04/09 03:35:49;;;;;;;;;;;;;;;;;;5052326;28;19967;-64
2022/04/09 03:38:16;;;;;;;;;;;;;;;;;;5052025;28;20409;-64
2022/04/09 03:40:42;;;;;;;;;;;;;;;;;;5054095;28;19929;-65
2022/04/09 03:43:08;;;;;;;;;;;;;;;;;;5052887;28;19994;-65
2022/04/09 03:45:34;;;;;;;;;;;;;;;;;;5052562;28;19973;-65
2022/04/09 03:48:00;;;;;;;;;;;;;;;;;;5052321;28;20360;-65
2022/04/09 03:50:26;;;;;;;;;;;;;;;;;;5043867;28;20015;-65
2022/04/09 03:52:53;;;;;;;;;;;;;;;;;;5050806;28;20027;-64
2022/04/09 03:55:19;;;;;;;;;;;;;;;;;;5051638;28;20073;-59
2022/04/09 03:57:46;;;;;;;;;;;;;;;;;;5050608;28;19944;-62
2022/04/09 04:00:14;;;;;;;;;;;;;;;;;;5051090;28;19943;-62
2022/04/09 04:02:40;;;;;;;;;;;;;;;;;;5050981;28;19938;-62
2022/04/09 04:05:06;;;;;;;;;;;;;;;;;;5050144;28;19954;-62
2022/04/09 04:07:33;;;;;;;;;;;;;;;;;;5051088;28;20307;-62
2022/04/09 04:09:59;;;;;;;;;;;;;;;;;;5051461;28;19943;-62
2022/04/09 04:12:28;;;;;;;;;;;;;;;;;;5049565;28;19947;-62
2022/04/09 04:14:54;;;;;;;;;;;;;;;;;;5050371;28;20002;-62
2022/04/09 04:17:20;;;;;;;;;;;;;;;;;;5054827;28;19950;-65
2022/04/09 04:19:46;;;;;;;;;;;;;;;;;;5056291;28;20034;-64
2022/04/09 04:22:12;;;;;;;;;;;;;;;;;;5048432;28;19946;-61
2022/04/09 04:24:39;;;;;;;;;;;;;;;;;;5051029;28;19967;-61
2022/04/09 04:27:05;;;;;;;;;;;;;;;;;;5049742;28;20442;-62
2022/04/09 04:29:31;;;;;;;;;;;;;;;;;;5049950;28;19925;-62
2022/04/09 04:31:57;;;;;;;;;;;;;;;;;;5049849;28;19968;-62
2022/04/09 04:34:23;;;;;;;;;;;;;;;;;;5048654;28;19952;-62
2022/04/09 04:36:49;;;;;;;;;;;;;;;;;;5050456;28;20090;-63
2022/04/09 04:39:16;;;;;;;;;;;;;;;;;;5050655;28;20412;-62
2022/04/09 04:41:42;;;;;;;;;;;;;;;;;;5050499;28;20390;-63
2022/04/09 04:44:09;;;;;;;;;;;;;;;;;;5051460;28;19948;-61
2022/04/09 04:46:36;;;;;;;;;;;;;;;;;;5048361;28;19986;-61
2022/04/09 04:49:03;;;;;;;;;;;;;;;;;;5048100;28;19950;-61
2022/04/09 04:51:29;;;;;;;;;;;;;;;;;;5047037;28;19967;-61
2022/04/09 04:53:55;;;;;;;;;;;;;;;;;;5052172;28;19940;-61
2022/04/09 04:56:23;;;;;;;;;;;;;;;;;;5048877;28;20006;-61
2022/04/09 04:58:49;;;;;;;;;;;;;;;;;;5048602;28;20452;-61
2022/04/09 05:01:15;;;;;;;;;;;;;;;;;;5047600;28;19979;-61
2022/04/09 05:03:41;;;;;;;;;;;;;;;;;;5048062;28;19949;-61
2022/04/09 05:06:08;;;;;;;;;;;;;;;;;;5047932;28;19954;-61
2022/04/09 05:08:34;;;;;;;;;;;;;;;;;;5049682;28;19924;-61
2022/04/09 05:11:00;;;;;;;;;;;;;;;;;;5049927;28;20066;-61
2022/04/09 05:13:26;;;;;;;;;;;;;;;;;;5044890;28;20035;-61
2022/04/09 05:15:52;;;;;;;;;;;;;;;;;;5052855;28;20024;-61
2022/04/09 05:18:19;;;;;;;;;;;;;;;;;;5054083;28;19963;-61
2022/04/09 05:20:45;;;;;;;;;;;;;;;;;;5051436;28;20048;-61
2022/04/09 05:23:11;;;;;;;;;;;;;;;;;;5055167;28;20053;-61
2022/04/09 05:25:37;;;;;;;;;;;;;;;;;;5058167;28;19961;-60
2022/04/09 05:28:03;;;;;;;;;;;;;;;;;;5058058;28;19975;-60
2022/04/09 05:30:30;;;;;;;;;;;;;;;;;;5054465;28;20400;-60
2022/04/09 05:32:56;;;;;;;;;;;;;;;;;;5053064;28;20346;-60
2022/04/09 05:35:22;;;;;;;;;;;;;;;;;;5050153;28;20048;-61
2022/04/09 05:37:50;;;;;;;;;;;;;;;;;;5051774;28;20006;-61
2022/04/09 05:40:16;;;;;;;;;;;;;;;;;;5047821;28;19956;-61
2022/04/09 05:42:42;;;;;;;;;;;;;;;;;;5050789;28;19942;-60
2022/04/09 05:45:08;;;;;;;;;;;;;;;;;;5049713;28;20322;-60
2022/04/09 05:47:35;;;;;;;;;;;;;;;;;;5050794;28;20405;-60
2022/04/09 05:50:01;;;;;;;;;;;;;;;;;;5050705;28;19971;-62
2022/04/09 05:52:27;;;;;;;;;;;;;;;;;;5050273;28;19943;-62
2022/04/09 05:54:54;;;;;;;;;;;;;;;;;;5050036;28;19980;-60
2022/04/09 05:57:20;;;;;;;;;;;;;;;;;;5047834;28;19955;-61
2022/04/09 05:59:48;;;;;;;;;;;;;;;;;;5045715;28;20334;-61
2022/04/09 06:02:14;;;;;;;;;;;;;;;;;;5047257;28;19967;-60
2022/04/09 06:04:40;;;;;;;;;;;;;;;;;;5047818;28;19986;-62
2022/04/09 06:07:06;;;;;;;;;;;;;;;;;;5048008;28;19970;-63
2022/04/09 06:09:32;;;;;;;;;;;;;;;;;;5047651;28;19925;-62
2022/04/09 06:11:58;;;;;;;;;;;;;;;;;;5047013;28;20030;-62
2022/04/09 06:14:25;;;;;;;;;;;;;;;;;;5046354;28;20005;-61
2022/04/09 06:16:51;;;;;;;;;;;;;;;;;;5050514;28;19969;-61
2022/04/09 06:19:17;;;;;;;;;;;;;;;;;;5046603;28;19987;-61
2022/04/09 06:21:43;;;;;;;;;;;;;;;;;;5046581;28;20418;-61
2022/04/09 06:24:10;;;;;;;;;;;;;;;;;;5047093;28;19976;-61
2022/04/09 06:26:36;;;;;;;;;;;;;;;;;;5047502;28;19954;-61
2022/04/09 06:29:02;;;;;;;;;;;;;;;;;;5046310;28;19984;-61
2022/04/09 06:31:28;;;;;;;;;;;;;;;;;;5046758;28;19988;-60
2022/04/09 06:33:54;;;;;;;;;;;;;;;;;;5047394;28;20072;-61
2022/04/09 06:36:38;;;;;;;;;;;;;;;;;;4976880;28;10000202;-61
2022/04/09 06:39:05;;;;;;;;;;;;;;;;;;5044886;28;19990;-60
2022/04/09 06:41:33;;;;;;;;;;;;;;;;;;5043839;28;20403;-61
2022/04/09 06:43:59;;;;;;;;;;;;;;;;;;5044438;28;19956;-61
2022/04/09 06:46:25;;;;;;;;;;;;;;;;;;5042792;28;20347;-61
2022/04/09 06:48:52;;;;;;;;;;;;;;;;;;5043458;28;19975;-61
2022/04/09 06:51:18;;;;;;;;;;;;;;;;;;5049409;28;19981;-67
2022/04/09 06:53:44;;;;;;;;;;;;;;;;;;5050473;28;19967;-71
2022/04/09 06:56:10;;;;;;;;;;;;;;;;;;5048197;28;19983;-70
2022/04/09 06:58:36;;;;;;;;;;;;;;;;;;5048502;28;19987;-69
2022/04/09 07:01:02;;;;;;;;;;;;;;;;;;5050071;28;19974;-73
2022/04/09 07:03:29;;;;;;;;;;;;;;;;;;5049286;28;19992;-70
2022/04/09 07:05:55;;;;;;;;;;;;;;;;;;5048285;28;19997;-70
2022/04/09 07:08:21;;;;;;;;;;;;;;;;;;5048440;28;20078;-69
2022/04/09 07:10:47;;;;;;;;;;;;;;;;;;5048215;28;20051;-69
2022/04/09 07:13:13;;;;;;;;;;;;;;;;;;5048071;28;19977;-68
2022/04/09 07:15:40;;;;;;;;;;;;;;;;;;5048489;28;19990;-70
2022/04/09 07:18:06;;;;;;;;;;;;;;;;;;5051496;28;20205;-68
2022/04/09 07:20:35;;;;;;;;;;;;;;;;;;5047915;28;19976;-68
2022/04/09 07:23:02;;;;;;;;;;;;;;;;;;5048734;28;20386;-70
2022/04/09 07:25:28;;;;;;;;;;;;;;;;;;5044793;28;20808;-70
2022/04/09 07:27:55;;;;;;;;;;;;;;;;;;5051632;28;19974;-71
2022/04/09 07:30:21;;;;;;;;;;;;;;;;;;5052162;28;19990;-70
2022/04/09 07:32:47;;;;;;;;;;;;;;;;;;5051190;28;20112;-70
2022/04/09 07:35:14;;;;;;;;;;;;;;;;;;5048322;28;19988;-71
2022/04/09 07:37:40;;;;;;;;;;;;;;;;;;5045532;28;19976;-72
2022/04/09 07:40:06;;;;;;;;;;;;;;;;;;5047459;28;20039;-72
2022/04/09 07:42:33;;;;;;;;;;;;;;;;;;5047509;28;19976;-72
2022/04/09 07:44:59;;;;;;;;;;;;;;;;;;5048160;28;19986;-72
2022/04/09 07:47:26;;;;;;;;;;;;;;;;;;5039824;28;20005;-73
2022/04/09 07:49:52;;;;;;;;;;;;;;;;;;5048287;28;20038;-72
2022/04/09 07:52:18;;;;;;;;;;;;;;;;;;5047432;28;19967;-72
2022/04/09 07:54:44;;;;;;;;;;;;;;;;;;5046145;28;19985;-72
2022/04/09 07:57:10;;;;;;;;;;;;;;;;;;5046740;28;19976;-72
2022/04/09 07:59:36;;;;;;;;;;;;;;;;;;5064011;22;19985;-66
2022/04/09 08:02:03;;;;;;;;;;;;;;;;;;5074871;28;19958;-66
2022/04/09 08:04:29;;;;;;;;;;;;;;;;;;5084191;28;19976;-66
2022/04/09 08:06:55;;;;;;;;;;;;;;;;;;5070043;28;19948;-66
2022/04/09 08:09:21;;;;;;;;;;;;;;;;;;5070801;28;19973;-65
2022/04/09 08:11:47;;;;;;;;;;;;;;;;;;5056313;28;20185;-67
2022/04/09 08:14:14;;;;;;;;;;;;;;;;;;5048773;28;19990;-66
2022/04/09 08:16:40;;;;;;;;;;;;;;;;;;5056021;28;20193;-67
2022/04/09 08:19:07;;;;;;;;;;;;;;;;;;5051204;28;19986;-67
2022/04/09 08:21:33;;;;;;;;;;;;;;;;;;5051461;28;20048;-66
2022/04/09 08:23:59;;;;;;;;;;;;;;;;;;5051697;28;19970;-66
2022/04/09 08:26:25;;;;;;;;;;;;;;;;;;5050558;28;20489;-67
2022/04/09 08:28:52;;;;;;;;;;;;;;;;;;4701611;28;9999754;-66
2022/04/09 08:31:19;;;;;;;;;;;;;;;;;;5047825;28;19978;-66
2022/04/09 08:33:45;;;;;;;;;;;;;;;;;;5045849;28;20485;-66
2022/04/09 08:36:11;;;;;;;;;;;;;;;;;;5047408;28;20373;-67
2022/04/09 08:38:38;;;;;;;;;;;;;;;;;;5047849;28;19985;-67
2022/04/09 08:41:04;;;;;;;;;;;;;;;;;;5047779;28;20055;-67
2022/04/09 08:43:30;;;;;;;;;;;;;;;;;;5048052;28;19976;-66
2022/04/09 08:45:56;;;;;;;;;;;;;;;;;;5046475;28;19977;-67
2022/04/09 08:48:22;;;;;;;;;;;;;;;;;;5045419;28;20332;-67
2022/04/09 08:50:48;;;;;;;;;;;;;;;;;;5042454;28;19961;-67
2022/04/09 08:53:15;;;;;;;;;;;;;;;;;;5046712;28;20262;-67
2022/04/09 08:55:43;;;;;;;;;;;;;;;;;;5045690;28;19996;-66
2022/04/09 08:58:09;;;;;;;;;;;;;;;;;;5065372;28;19972;-66
2022/04/09 09:00:36;;;;;;;;;;;;;;;;;;5066384;28;19970;-66
2022/04/09 09:03:02;;;;;;;;;;;;;;;;;;5058042;28;20044;-66
2022/04/09 09:05:28;;;;;;;;;;;;;;;;;;5064127;28;19982;-66
2022/04/09 09:07:54;;;;;;;;;;;;;;;;;;5062018;28;19970;-67
2022/04/09 09:10:21;;;;;;;;;;;;;;;;;;5050800;28;20005;-66
2022/04/09 09:12:47;;;;;;;;;;;;;;;;;;5036231;28;20369;-66
2022/04/09 09:15:14;;;;;;;;;;;;;;;;;;5041216;28;19995;-66
2022/04/09 09:17:40;;;;;;;;;;;;;;;;;;5047127;28;20045;-66
2022/04/09 09:20:06;;;;;;;;;;;;;;;;;;5047720;28;19987;-66
2022/04/09 09:22:32;;;;;;;;;;;;;;;;;;5048130;28;19967;-66
2022/04/09 09:24:59;;;;;;;;;;;;;;;;;;5043411;28;20491;-66
2022/04/09 09:27:25;;;;;;;;;;;;;;;;;;5047453;28;19964;-67
2022/04/09 09:29:51;;;;;;;;;;;;;;;;;;5047519;28;19929;-67
2022/04/09 09:32:17;;;;;;;;;;;;;;;;;;5042182;28;19925;-66
2022/04/09 09:34:44;;;;;;;;;;;;;;;;;;5038137;28;19979;-66
2022/04/09 09:37:10;;;;;;;;;;;;;;;;;;5039516;28;19932;-67
2022/04/09 09:39:36;;;;;;;;;;;;;;;;;;5039988;28;19932;-67
2022/04/09 09:42:03;;;;;;;;;;;;;;;;;;5042255;28;20404;-66
2022/04/09 09:44:30;;;;;;;;;;;;;;;;;;5046540;28;20330;-67
2022/04/09 09:46:56;;;;;;;;;;;;;;;;;;5045945;28;20187;-67
2022/04/09 09:49:24;;;;;;;;;;;;;;;;;;5048237;28;19925;-66
2022/04/09 09:51:50;;;;;;;;;;;;;;;;;;5042470;28;19928;-67
2022/04/09 09:54:16;;;;;;;;;;;;;;;;;;5045171;28;19925;-67
2022/04/09 09:56:43;;;;;;;;;;;;;;;;;;5041483;28;19931;-67
2022/04/09 09:59:09;;;;;;;;;;;;;;;;;;5037661;28;19940;-67
2022/04/09 10:01:35;;;;;;;;;;;;;;;;;;5041356;28;19933;-67
2022/04/09 10:04:01;;;;;;;;;;;;;;;;;;5045330;28;19936;-67
2022/04/09 10:06:27;;;;;;;;;;;;;;;;;;5048752;28;19932;-68
2022/04/09 10:08:53;;;;;;;;;;;;;;;;;;5045658;28;20215;-68
2022/04/09 10:11:20;;;;;;;;;;;;;;;;;;5037917;28;19940;-67
2022/04/09 10:13:47;;;;;;;;;;;;;;;;;;5044022;28;19925;-67
2022/04/09 10:16:18;;;;;;;;;;;;;;;;;;5043345;28;19933;-67
2022/04/09 10:18:44;;;;;;;;;;;;;;;;;;5043410;28;19929;-66
2022/04/09 10:21:10;;;;;;;;;;;;;;;;;;5046230;28;19935;-66
2022/04/09 10:23:37;;;;;;;;;;;;;;;;;;5046390;28;19928;-66
2022/04/09 10:26:03;;;;;;;;;;;;;;;;;;5050852;28;19975;-66
2022/04/09 10:28:29;;;;;;;;;;;;;;;;;;5048721;28;19929;-66
2022/04/09 10:30:55;;;;;;;;;;;;;;;;;;5051024;28;19928;-66
2022/04/09 10:33:21;;;;;;;;;;;;;;;;;;5051130;28;20079;-67
2022/04/09 10:35:48;;;;;;;;;;;;;;;;;;5054323;28;20018;-68
2022/04/09 10:38:14;;;;;;;;;;;;;;;;;;5052886;28;20409;-66
2022/04/09 10:40:40;;;;;;;;;;;;;;;;;;5053669;28;20415;-67
2022/04/09 10:43:06;;;;;;;;;;;;;;;;;;5047873;28;19929;-68
2022/04/09 10:45:32;;;;;;;;;;;;;;;;;;5054253;28;20381;-67
2022/04/09 10:47:58;;;;;;;;;;;;;;;;;;5050335;28;19993;-66
2022/04/09 10:50:25;;;;;;;;;;;;;;;;;;5052132;28;19929;-69
2022/04/09 10:52:51;;;;;;;;;;;;;;;;;;5047627;28;19929;-67
2022/04/09 10:55:20;;;;;;;;;;;;;;;;;;5048805;28;19950;-67
2022/04/09 10:57:46;;;;;;;;;;;;;;;;;;5052222;28;19925;-67
2022/04/09 11:00:12;;;;;;;;;;;;;;;;;;5047216;28;20381;-67
2022/04/09 11:02:38;;;;;;;;;;;;;;;;;;5050773;28;19925;-67
2022/04/09 11:05:04;;;;;;;;;;;;;;;;;;5052937;28;19932;-67
2022/04/09 11:07:32;;;;;;;;;;;;;;;;;;5053270;28;19965;-67
2022/04/09 11:09:58;;;;;;;;;;;;;;;;;;5064770;28;20316;-67
2022/04/09 11:12:24;;;;;;;;;;;;;;;;;;5064566;28;20010;-67
2022/04/09 11:14:50;;;;;;;;;;;;;;;;;;5063639;28;20057;-68
2022/04/09 11:17:17;;;;;;;;;;;;;;;;;;5063398;28;19929;-67
2022/04/09 11:19:43;;;;;;;;;;;;;;;;;;5059794;28;19928;-67
2022/04/09 11:22:09;;;;;;;;;;;;;;;;;;5049328;28;19971;-68
2022/04/09 11:24:35;;;;;;;;;;;;;;;;;;5044952;28;19925;-67
2022/04/09 11:27:01;;;;;;;;;;;;;;;;;;5047865;28;19964;-68
2022/04/09 11:29:28;;;;;;;;;;;;;;;;;;5051666;28;19948;-67
2022/04/09 11:31:54;;;;;;;;;;;;;;;;;;5040715;28;19929;-67
2022/04/09 11:34:20;;;;;;;;;;;;;;;;;;5044111;28;19966;-68
2022/04/09 11:36:46;;;;;;;;;;;;;;;;;;5041764;28;19978;-66
2022/04/09 11:39:12;;;;;;;;;;;;;;;;;;5040171;28;20017;-69
2022/04/09 11:41:39;;;;;;;;;;;;;;;;;;5046088;28;19959;-67
2022/04/09 11:44:05;;;;;;;;;;;;;;;;;;5046427;28;19978;-69
2022/04/09 11:46:32;;;;;;;;;;;;;;;;;;5055239;28;19976;-69
2022/04/09 11:48:58;;;;;;;;;;;;;;;;;;5047800;28;20620;-67
2022/04/09 11:51:24;;;;;;;;;;;;;;;;;;5041961;28;20465;-67
2022/04/09 11:53:50;;;;;;;;;;;;;;;;;;5048534;28;19974;-68
2022/04/09 11:56:16;;;;;;;;;;;;;;;;;;5045485;28;19990;-67
2022/04/09 11:58:43;;;;;;;;;;;;;;;;;;5040694;28;19933;-68
2022/04/09 12:01:09;;;;;;;;;;;;;;;;;;5039082;28;20422;-67
2022/04/09 12:03:35;;;;;;;;;;;;;;;;;;5043409;28;20003;-67
2022/04/09 12:06:01;;;;;;;;;;;;;;;;;;5042173;28;19981;-67
2022/04/09 12:08:29;;;;;;;;;;;;;;;;;;5044202;28;20974;-67
2022/04/09 12:10:55;;;;;;;;;;;;;;;;;;5039896;28;19982;-68
2022/04/09 12:13:21;;;;;;;;;;;;;;;;;;5044978;28;20242;-69
2022/04/09 12:15:48;;;;;;;;;;;;;;;;;;5043862;28;19991;-68
2022/04/09 12:18:14;;;;;;;;;;;;;;;;;;5048835;28;19975;-68
2022/04/09 12:20:41;;;;;;;;;;;;;;;;;;5048812;28;19978;-68
2022/04/09 12:23:08;;;;;;;;;;;;;;;;;;5049255;28;19975;-68
2022/04/09 12:25:34;;;;;;;;;;;;;;;;;;5048186;28;19975;-67
2022/04/09 12:28:00;;;;;;;;;;;;;;;;;;5053608;28;20404;-67
2022/04/09 12:30:26;;;;;;;;;;;;;;;;;;5047453;28;20479;-67
2022/04/09 12:32:53;;;;;;;;;;;;;;;;;;5049987;28;19973;-67
2022/04/09 12:35:21;;;;;;;;;;;;;;;;;;5061734;28;20018;-67
2022/04/09 12:37:47;;;;;;;;;;;;;;;;;;5059339;28;20004;-67
2022/04/09 12:40:14;;;;;;;;;;;;;;;;;;5062171;28;20028;-70
2022/04/09 12:42:40;;;;;;;;;;;;;;;;;;5061500;28;19972;-68
2022/04/09 12:45:06;;;;;;;;;;;;;;;;;;5061513;28;20010;-68
2022/04/09 12:47:32;;;;;;;;;;;;;;;;;;5048765;28;19972;-68
2022/04/09 12:49:58;;;;;;;;;;;;;;;;;;5048745;28;19976;-68
2022/04/09 12:52:25;;;;;;;;;;;;;;;;;;5046640;28;20060;-67
2022/04/09 12:54:51;;;;;;;;;;;;;;;;;;5048870;28;19991;-67
2022/04/09 12:57:17;;;;;;;;;;;;;;;;;;5048220;28;20358;-67
2022/04/09 12:59:43;;;;;;;;;;;;;;;;;;5044384;28;20036;-67
2022/04/09 13:02:09;;;;;;;;;;;;;;;;;;5047691;28;20347;-67
2022/04/09 13:04:35;;;;;;;;;;;;;;;;;;5048534;28;20381;-67
2022/04/09 13:07:02;;;;;;;;;;;;;;;;;;5047756;28;19961;-68
2022/04/09 13:09:28;;;;;;;;;;;;;;;;;;5048898;28;20016;-67
2022/04/09 13:11:54;;;;;;;;;;;;;;;;;;5047838;28;20096;-67
2022/04/09 13:14:20;;;;;;;;;;;;;;;;;;5049100;28;20070;-69
2022/04/09 13:16:48;;;;;;;;;;;;;;;;;;5048903;28;19982;-67
2022/04/09 13:19:14;;;;;;;;;;;;;;;;;;5047006;28;20459;-67
2022/04/09 13:21:40;;;;;;;;;;;;;;;;;;5048813;28;19966;-68
2022/04/09 13:24:07;;;;;;;;;;;;;;;;;;5046643;28;20197;-67
2022/04/09 13:26:33;;;;;;;;;;;;;;;;;;5045981;28;20504;-67
2022/04/09 13:28:59;;;;;;;;;;;;;;;;;;5052200;28;19947;-67
2022/04/09 13:31:30;;;;;;;;;;;;;;;;;;5057118;28;19933;-67
2022/04/09 13:33:56;;;;;;;;;;;;;;;;;;5052265;28;19980;-67
2022/04/09 13:36:23;;;;;;;;;;;;;;;;;;5038840;28;19940;-67
2022/04/09 13:38:49;;;;;;;;;;;;;;;;;;5044689;28;19925;-67
2022/04/09 13:41:18;;;;;;;;;;;;;;;;;;5036488;28;19955;-67
2022/04/09 13:43:44;;;;;;;;;;;;;;;;;;5042358;28;19928;-67
2022/04/09 13:46:10;;;;;;;;;;;;;;;;;;5046612;28;19959;-67
2022/04/09 13:48:36;;;;;;;;;;;;;;;;;;5047794;28;20243;-67
2022/04/09 13:51:02;;;;;;;;;;;;;;;;;;5047878;28;19954;-67
2022/04/09 13:53:29;;;;;;;;;;;;;;;;;;5048056;28;19945;-67
2022/04/09 13:55:55;;;;;;;;;;;;;;;;;;5045101;28;20050;-68
2022/04/09 13:58:21;;;;;;;;;;;;;;;;;;5047753;28;20397;-67
2022/04/09 14:00:47;;;;;;;;;;;;;;;;;;5041626;28;20301;-67
2022/04/09 14:03:13;;;;;;;;;;;;;;;;;;5041474;28;19947;-68
2022/04/09 14:05:40;;;;;;;;;;;;;;;;;;5046590;28;20342;-67
2022/04/09 14:08:06;;;;;;;;;;;;;;;;;;5043425;28;19937;-67
2022/04/09 14:10:32;;;;;;;;;;;;;;;;;;5046183;28;19940;-67
2022/04/09 14:12:58;;;;;;;;;;;;;;;;;;5045337;28;19929;-67
2022/04/09 14:15:24;;;;;;;;;;;;;;;;;;5044086;28;19929;-69
2022/04/09 14:17:51;;;;;;;;;;;;;;;;;;5044904;28;19928;-67
2022/04/09 14:20:17;;;;;;;;;;;;;;;;;;5042002;28;19931;-67
2022/04/09 14:22:43;;;;;;;;;;;;;;;;;;5043273;28;19964;-67
2022/04/09 14:25:09;;;;;;;;;;;;;;;;;;5046193;28;19925;-67
2022/04/09 14:27:36;;;;;;;;;;;;;;;;;;5045898;28;19929;-67
2022/04/09 14:30:02;;;;;;;;;;;;;;;;;;5047632;28;19948;-67
2022/04/09 14:32:28;;;;;;;;;;;;;;;;;;5045131;28;20370;-67
2022/04/09 14:34:54;;;;;;;;;;;;;;;;;;5039619;28;19932;-67
2022/04/09 14:37:20;;;;;;;;;;;;;;;;;;5042904;28;21243;-67
2022/04/09 14:39:47;;;;;;;;;;;;;;;;;;5044921;28;20031;-67
2022/04/09 14:42:13;;;;;;;;;;;;;;;;;;5040924;28;20007;-66
2022/04/09 14:44:39;;;;;;;;;;;;;;;;;;5040862;28;20000;-67
2022/04/09 14:47:06;;;;;;;;;;;;;;;;;;5036137;28;19932;-66
2022/04/09 14:49:32;;;;;;;;;;;;;;;;;;5041743;28;20331;-66
2022/04/09 14:51:58;;;;;;;;;;;;;;;;;;5038925;28;20559;-66
2022/04/09 14:54:25;;;;;;;;;;;;;;;;;;5044283;28;19925;-66
2022/04/09 14:56:51;;;;;;;;;;;;;;;;;;5050255;28;20005;-67
2022/04/09 14:59:17;;;;;;;;;;;;;;;;;;5056944;28;19932;-67
2022/04/09 15:01:43;;;;;;;;;;;;;;;;;;5058526;28;19924;-69
2022/04/09 15:04:10;;;;;;;;;;;;;;;;;;5057492;28;19925;-66
2022/04/09 15:06:37;;;;;;;;;;;;;;;;;;5059785;28;19929;-67
2022/04/09 15:09:03;;;;;;;;;;;;;;;;;;5055559;28;19933;-66
2022/04/09 15:11:29;;;;;;;;;;;;;;;;;;5056627;28;19933;-67
2022/04/09 15:13:55;;;;;;;;;;;;;;;;;;5062252;28;20402;-68
2022/04/09 15:16:22;;;;;;;;;;;;;;;;;;5058119;28;20329;-67
2022/04/09 15:18:48;;;;;;;;;;;;;;;;;;5051345;28;19925;-68
2022/04/09 15:21:14;;;;;;;;;;;;;;;;;;5046314;28;20023;-67
2022/04/09 15:23:40;;;;;;;;;;;;;;;;;;5044612;28;19925;-67
2022/04/09 15:26:07;;;;;;;;;;;;;;;;;;5044326;28;19955;-67
2022/04/09 15:28:35;;;;;;;;;;;;;;;;;;5042878;28;20186;-67
2022/04/09 15:31:01;;;;;;;;;;;;;;;;;;5044235;28;20309;-67
2022/04/09 15:33:27;;;;;;;;;;;;;;;;;;5039800;28;19950;-67
2022/04/09 15:35:54;;;;;;;;;;;;;;;;;;5051252;28;19996;-67
2022/04/09 15:38:20;;;;;;;;;;;;;;;;;;5059038;28;19956;-67
2022/04/09 15:40:46;;;;;;;;;;;;;;;;;;5061278;28;19978;-67
2022/04/09 15:43:12;;;;;;;;;;;;;;;;;;5056922;28;19962;-66
2022/04/09 15:45:38;;;;;;;;;;;;;;;;;;5050969;28;20736;-67
2022/04/09 15:48:04;;;;;;;;;;;;;;;;;;5044173;28;19924;-67
2022/04/09 15:50:30;;;;;;;;;;;;;;;;;;5045895;28;19929;-67
2022/04/09 15:52:57;;;;;;;;;;;;;;;;;;5056863;28;19973;-67
2022/04/09 15:55:23;;;;;;;;;;;;;;;;;;5060110;28;19929;-67
2022/04/09 15:57:49;;;;;;;;;;;;;;;;;;5058146;28;19952;-67
2022/04/09 16:00:15;;;;;;;;;;;;;;;;;;5059012;28;19928;-66
2022/04/09 16:02:41;;;;;;;;;;;;;;;;;;5054142;28;19929;-66
2022/04/09 16:05:10;;;;;;;;;;;;;;;;;;5047597;28;20287;-68
2022/04/09 16:07:36;;;;;;;;;;;;;;;;;;5040208;28;19930;-68
2022/04/09 16:10:02;;;;;;;;;;;;;;;;;;5039009;28;19928;-68
2022/04/09 16:12:29;;;;;;;;;;;;;;;;;;5041879;28;20457;-66
2022/04/09 16:14:55;;;;;;;;;;;;;;;;;;5042480;28;19925;-66
2022/04/09 16:17:21;;;;;;;;;;;;;;;;;;5044420;28;19932;-67
2022/04/09 16:19:47;;;;;;;;;;;;;;;;;;5043441;28;19929;-68
2022/04/09 16:22:15;;;;;;;;;;;;;;;;;;5042924;28;19933;-69
2022/04/09 16:24:41;;;;;;;;;;;;;;;;;;5045083;28;19990;-69
2022/04/09 16:27:08;;;;;;;;;;;;;;;;;;5041311;28;19959;-67
2022/04/09 16:29:34;;;;;;;;;;;;;;;;;;5045834;28;19928;-67
2022/04/09 16:32:00;;;;;;;;;;;;;;;;;;5040247;28;19925;-67
2022/04/09 16:34:26;;;;;;;;;;;;;;;;;;5044641;28;19932;-67
2022/04/09 16:36:52;;;;;;;;;;;;;;;;;;5042303;28;19932;-69
2022/04/09 16:39:21;;;;;;;;;;;;;;;;;;5043394;28;20342;-67
2022/04/09 16:41:47;;;;;;;;;;;;;;;;;;5043164;28;19928;-67